Lago Vista, Lago Vista Tx Rusty Allen Airport (KRYW)

NameLago Vista Tx Rusty Allen Airport
CityLago Vista
CountryUnited States
ICAOKRYW
IATA
Altitude375 m
CoordinatesGoogle Map
Live Air TrafficLiveATC.net
METARKRYW 180055Z AUTO 02006KT 10SM CLR 18/06 A3012 RMK AO2 T01760064
2019-01-18 00:55:00 Wind: North (20°) 3.09 m/s - Visibility: 16093.4 m - Temperature: 18 °C - Dew point: 6 °C - Humidity: 45.6% - Pressure: 1019.98 hPa
Statistics

The table below shows the detailed information of all flights to/from Lago Vista, Lago Vista Tx Rusty Allen Airport (KRYW).